Date,TemperatureHighF,TemperatureAvgF,TemperatureLowF,DewpointHighF,DewpointAvgF,DewpointLowF,HumidityHigh,HumidityAvg,HumidityLow,PressureMaxIn,PressureMinIn,WindSpeedMaxMPH,WindSpeedAvgMPH,GustSpeedMaxMPH,PrecipitationSumIn
2013-1-1,55,50,44,46,43,38,87,77,67,30.16,30.10,12,4,12,0.00
2013-1-2,55,51,49,48,46,44,90,84,70,30.27,30.09,15,8,15,0.34
2013-1-3,59,54,50,48,43,40,77,68,58,30.48,30.27,8,4,8,0.21
2013-1-4,55,51,48,48,44,41,90,79,69,30.47,30.28,7,3,7,0.00
2013-1-5,54,50,47,49,46,42,91,86,68,30.27,30.09,8,3,8,0.01
2013-1-6,59,53,48,49,44,37,89,72,48,30.19,30.10,23,8,23,0.00
2013-1-7,59,53,50,49,44,35,89,73,48,30.24,30.06,8,3,8,0.00
2013-1-8,56,51,48,47,42,35,89,71,58,30.29,30.21,11,3,12,0.00
2013-1-9,55,52,51,49,47,44,85,81,75,30.21,30.14,12,3,12,0.00
2013-1-10,54,51,48,49,46,42,94,82,70,30.14,29.82,14,2,14,0.17
2013-1-11,56,51,47,50,47,40,95,85,66,29.88,29.76,25,8,25,0.13
2013-1-12,55,50,45,47,44,40,88,80,70,30.08,29.82,13,4,13,0.00
2013-1-13,55,51,47,52,46,39,95,84,71,30.06,29.90,24,7,24,1.86
2013-1-14,55,52,49,51,48,45,94,86,82,29.95,29.85,21,8,21,0.33
2013-1-15,53,48,46,48,45,42,92,88,82,29.95,29.68,12,4,12,0.11
2013-1-16,50,45,41,44,40,35,91,81,67,29.68,29.50,26,9,26,0.35
2013-1-17,52,47,41,47,44,38,94,89,73,29.53,29.35,22,7,22,0.82
2013-1-18,46,44,40,41,39,37,92,83,79,29.60,29.32,18,7,18,0.18
2013-1-19,52,46,43,50,41,33,94,83,69,29.69,29.58,31,11,31,0.31
2013-1-20,57,56,52,55,53,49,93,91,87,29.63,29.52,24,11,26,0.51
2013-1-21,55,51,47,54,48,43,94,91,76,29.61,29.39,27,6,27,0.57
2013-1-22,54,49,45,48,44,37,94,82,58,29.84,29.60,26,9,27,0.34
2013-1-23,54,48,44,47,44,41,92,87,77,29.85,29.61,26,8,26,0.73
2013-1-24,48,46,43,45,43,41,94,91,88,29.61,29.39,20,6,20,1.01
2013-1-25,51,47,45,44,40,36,92,76,61,29.60,29.42,25,10,25,0.06
2013-1-26,48,46,43,37,34,31,71,64,60,29.84,29.59,18,8,18,0.00
2013-1-27,50,45,42,39,35,31,76,68,58,30.00,29.83,12,4,12,0.00
2013-1-28,50,47,45,43,41,39,90,82,73,30.00,29.86,20,7,20,0.13
2013-1-29,55,50,45,46,42,36,90,74,58,30.24,29.99,23,6,23,0.00
2013-1-30,55,51,48,50,47,45,92,87,81,30.23,30.17,12,3,12,0.00
2013-1-31,60,54,50,53,50,48,93,87,75,30.22,30.12,13,4,13,0.00
2013-2-1,57,54,51,53,51,49,92,90,80,30.19,29.84,18,6,18,0.00
2013-2-2,59,54,45,54,51,41,94,89,79,29.83,29.35,27,11,27,0.09
2013-2-3,52,48,44,46,42,37,89,80,71,29.92,29.47,22,7,22,0.16
2013-2-4,52,46,42,38,34,30,78,63,45,30.13,29.92,17,4,17,0.00
2013-2-5,54,49,42,49,41,32,90,74,62,30.12,29.82,18,4,18,0.02
2013-2-6,55,51,47,50,44,36,90,78,63,29.83,29.53,23,8,23,0.02
2013-2-7,51,45,40,43,40,37,91,81,67,29.58,29.50,20,7,20,0.46
2013-2-8,47,42,37,39,35,32,93,76,62,29.75,29.52,20,8,20,0.14
2013-2-9,44,40,38,36,33,31,87,75,66,29.86,29.70,18,5,18,0.01
2013-2-10,46,41,37,33,30,26,78,64,54,29.96,29.83,17,5,17,0.02
2013-2-11,52,45,40,47,39,30,92,78,65,29.96,29.66,29,11,29,0.51
2013-2-12,49,45,42,47,42,39,94,89,80,29.68,29.60,17,6,17,0.83
2013-2-13,54,46,42,45,42,40,93,83,69,29.81,29.64,13,4,13,0.14
2013-2-14,55,48,43,43,41,37,90,77,61,29.97,29.82,9,2,9,0.00
2013-2-15,54,48,44,44,41,36,90,78,64,30.01,29.96,12,4,12,0.22
2013-2-16,51,47,43,43,40,38,90,79,69,30.05,29.94,15,4,15,0.13
2013-2-17,53,48,42,43,40,34,84,74,63,30.05,29.97,13,3,13,0.02
2013-2-18,53,47,43,45,40,36,86,76,60,29.99,29.92,12,5,12,0.18
2013-2-19,52,46,41,39,36,33,85,70,52,29.99,29.92,12,4,12,0.00
2013-2-20,54,47,43,41,38,36,81,72,57,30.00,29.91,12,4,12,0.00
2013-2-21,50,46,44,44,39,36,89,78,65,29.91,29.69,8,3,8,0.04
2013-2-22,53,49,44,50,46,40,94,89,83,29.70,29.52,22,6,22,0.50
2013-2-23,56,52,47,51,48,43,95,88,77,29.69,29.53,25,10,25,0.17
2013-2-24,52,47,42,48,40,34,93,79,61,29.96,29.67,20,6,20,0.09
2013-2-25,48,45,40,43,39,34,92,80,69,30.02,29.95,16,4,16,0.24
2013-2-26,49,45,42,42,40,36,92,81,67,30.10,29.99,7,2,7,0.07
2013-2-27,54,48,44,45,41,37,91,79,61,30.18,30.08,12,3,12,0.00
2013-2-28,56,50,46,43,40,34,79,69,52,30.22,30.12,12,6,12,0.00
2013-3-1,56,52,48,43,40,36,73,63,49,30.12,29.85,16,4,16,0.00
2013-3-2,54,52,47,46,42,37,85,69,59,29.97,29.76,32,12,32,0.05
2013-3-3,57,50,44,44,38,33,88,66,43,30.08,29.96,18,4,18,0.00
2013-3-4,57,50,45,47,44,41,88,79,66,30.19,30.06,13,4,13,0.00
2013-3-5,59,53,47,48,43,39,87,68,54,30.19,30.00,29,9,29,0.01
2013-3-6,59,55,53,53,47,37,93,76,46,30.01,29.77,35,16,35,0.87
2013-3-7,58,56,54,55,54,52,95,93,89,29.83,29.76,13,5,13,0.07
2013-3-8,56,54,53,54,53,52,96,95,90,29.82,29.70,27,10,27,0.75
2013-3-9,62,56,51,53,52,48,97,86,60,29.84,29.74,24,7,24,0.00
2013-3-10,62,56,52,54,52,50,95,89,69,29.76,29.66,20,8,20,0.07
2013-3-11,59,54,51,54,51,48,95,89,77,29.67,29.62,18,7,18,0.01
2013-3-12,59,52,48,53,49,45,93,87,76,29.65,29.54,26,11,26,0.23
2013-3-13,56,51,48,51,48,45,96,90,79,29.57,29.31,24,8,24,0.89
2013-3-14,49,48,46,48,46,42,95,94,89,29.32,29.11,23,5,23,0.68
2013-3-15,46,43,40,45,36,28,99,78,59,29.85,29.31,30,12,30,0.24
2013-3-16,50,43,40,33,31,28,73,62,49,30.13,29.85,16,6,16,0.00
2013-3-17,52,47,42,45,38,32,81,71,63,30.12,29.83,32,12,32,0.02
2013-3-18,57,53,49,54,50,45,94,90,81,29.84,29.60,33,18,33,0.37
2013-3-19,60,53,48,50,45,41,85,74,61,29.85,29.73,17,6,17,0.01
2013-3-20,62,52,47,51,41,25,95,68,25,29.84,29.69,20,7,20,0.43
2013-3-21,58,53,49,53,48,44,96,84,61,29.96,29.67,21,10,21,0.05
2013-3-22,59,52,47,51,46,43,89,80,68,29.96,29.88,14,4,14,0.00
2013-3-23,62,55,47,50,43,32,96,68,39,29.96,29.79,25,5,25,0.00
2013-3-24,69,62,57,52,42,32,79,51,26,29.79,29.47,30,15,30,0.00
2013-3-25,58,55,52,53,51,49,93,87,77,29.54,29.35,25,9,25,0.09
2013-3-26,60,53,50,54,50,47,93,89,79,29.62,29.54,21,7,21,0.13
2013-3-27,57,52,50,52,49,46,93,88,80,29.83,29.62,20,7,20,0.05
2013-3-28,59,55,50,55,51,48,93,89,81,29.92,29.82,25,11,25,0.03
2013-3-29,64,58,54,55,52,50,92,80,67,29.91,29.82,20,8,20,0.01
2013-3-30,59,56,55,56,53,52,96,92,87,29.82,29.58,23,12,23,0.11
2013-3-31,60,55,52,54,50,47,96,83,67,29.74,29.59,24,12,24,0.02
2013-4-1,59,54,50,53,51,48,95,88,72,29.78,29.64,27,9,27,0.25
2013-4-2,57,54,50,55,52,48,94,92,85,29.65,29.46,23,11,23,0.45
2013-4-3,59,53,50,54,50,48,95,90,79,29.82,29.56,17,9,17,0.29
2013-4-4,63,56,49,52,48,39,95,77,40,29.84,29.58,27,12,27,0.00
2013-4-5,63,58,52,56,53,44,93,83,53,29.82,29.47,29,8,29,0.01
2013-4-6,65,58,53,55,52,49,91,81,62,29.82,29.72,20,5,20,0.00
2013-4-7,64,58,53,54,47,42,85,67,50,29.75,29.63,25,7,25,0.01
2013-4-8,59,55,51,50,47,45,89,76,63,29.92,29.74,15,6,15,0.00
2013-4-9,63,56,52,55,52,48,92,85,73,29.99,29.87,14,6,14,0.00
2013-4-10,62,57,54,55,52,48,92,84,72,30.06,29.93,20,8,20,0.00
2013-4-11,65,57,51,54,49,43,92,76,59,30.06,30.02,17,6,17,0.00
2013-4-12,67,58,54,54,52,49,92,79,55,30.06,29.99,22,11,22,0.00
2013-4-13,66,59,53,59,54,50,91,84,70,30.26,30.04,12,5,12,0.00
2013-4-14,72,61,52,58,53,44,94,77,46,30.31,30.24,13,3,13,0.00
2013-4-15,72,65,59,49,41,34,54,42,29,30.27,30.13,12,5,12,0.00
2013-4-16,71,64,57,56,46,36,87,54,31,30.17,30.11,14,5,14,0.00
2013-4-17,70,64,56,52,41,33,72,45,29,30.20,30.14,12,4,12,0.00
2013-4-18,72,65,58,53,39,26,70,41,25,30.18,30.06,12,4,12,0.00
2013-4-19,72,63,56,59,54,46,89,75,55,30.07,29.95,22,4,22,0.00
2013-4-20,66,61,57,58,56,52,92,83,73,30.04,29.97,23,9,23,0.00
2013-4-21,64,58,53,54,50,48,91,76,62,30.05,29.97,10,4,10,0.02
2013-4-22,62,55,48,53,48,45,91,79,59,30.05,29.92,14,5,14,0.26
2013-4-23,67,60,52,55,49,46,83,70,52,30.23,30.05,18,6,18,0.00
2013-4-24,78,69,61,54,48,43,59,49,36,30.29,30.22,14,4,14,0.00
2013-4-25,80,72,64,56,46,36,60,41,22,30.25,30.10,12,4,12,0.00
2013-4-26,73,67,58,57,48,39,87,53,32,30.14,29.98,25,8,25,0.12
2013-4-27,64,59,55,56,52,45,93,78,50,29.98,29.83,27,12,27,0.54
2013-4-28,78,70,61,58,50,41,77,53,30,29.99,29.89,23,8,23,0.00
2013-4-29,81,75,66,54,48,44,60,40,29,30.03,29.98,24,9,24,0.00
2013-4-30,85,76,67,52,44,33,57,33,21,30.10,30.00,22,8,22,0.00
2013-5-1,84,76,69,56,44,33,49,33,18,30.08,29.98,16,5,16,0.00
2013-5-2,80,71,63,61,53,43,78,54,29,30.03,29.90,20,5,20,0.02
2013-5-3,78,68,61,63,57,50,85,68,40,29.97,29.90,9,3,9,0.00
2013-5-4,82,71,63,63,57,49,82,62,44,30.04,29.89,18,5,18,0.00
2013-5-5,76,69,62,64,59,53,84,71,46,30.04,29.91,22,5,22,0.04
2013-5-6,69,64,59,64,59,54,91,84,61,30.04,29.90,14,6,14,0.12
2013-5-7,67,62,57,60,57,54,92,83,74,30.04,30.00,15,7,15,0.66
2013-5-8,68,62,58,59,57,55,92,84,70,30.03,29.93,13,6,13,0.00
2013-5-11,66,62,59,57,54,52,83,76,71,29.94,29.89,15,7,15,0.00
2013-5-12,68,62,56,59,55,51,85,78,63,29.93,29.85,15,5,15,0.00
2013-5-13,70,64,59,61,57,50,95,80,65,29.98,29.88,13,5,13,0.03
2013-5-14,70,63,58,57,49,39,86,61,39,30.01,29.92,13,4,13,0.00
2013-5-15,69,63,58,59,53,41,89,71,41,29.92,29.73,20,7,20,0.00
2013-5-16,76,68,63,62,56,47,90,68,50,29.73,29.49,29,13,29,0.09
2013-5-17,68,63,58,62,58,54,92,84,64,29.97,29.60,16,5,18,0.02
2013-5-18,81,69,56,57,53,42,91,61,30,30.01,29.86,20,7,20,0.00
2013-5-19,72,65,59,62,56,50,92,73,51,30.11,29.85,18,7,18,0.00
2013-5-20,70,62,57,58,55,51,86,77,66,30.13,30.09,13,5,13,0.00
2013-5-21,78,65,58,56,49,40,85,60,30,30.11,29.82,14,4,14,0.06
2013-5-22,82,71,59,61,56,50,92,61,42,29.82,29.34,29,10,29,0.74
2013-5-23,67,61,58,60,57,55,95,88,71,29.74,29.40,19,9,20,0.18
2013-5-24,66,61,58,57,54,52,87,78,67,29.92,29.74,22,11,22,0.01
2013-5-25,64,58,53,54,50,47,92,75,59,29.95,29.89,18,8,18,0.29
2013-5-26,64,58,53,53,49,43,90,72,62,30.06,29.90,23,10,23,0.06
2013-5-27,66,59,53,51,49,43,84,69,47,30.05,29.93,12,4,12,0.00
2013-5-28,76,64,55,58,48,26,83,57,24,29.93,29.65,10,3,10,0.00
2013-5-29,68,62,57,60,55,41,89,79,45,29.80,29.72,14,5,14,0.00
2013-5-30,65,58,53,53,50,46,90,75,60,29.82,29.75,20,6,20,0.13
2013-5-31,64,58,52,57,52,47,90,82,68,29.83,29.77,21,8,21,0.10
2013-6-1,64,58,53,57,54,51,94,87,69,29.81,29.74,15,4,15,0.67
2013-6-2,68,60,52,60,56,51,95,87,68,29.98,29.80,15,4,15,0.02
2013-6-3,68,62,59,60,57,53,92,84,75,29.98,29.89,20,8,20,0.00
2013-6-4,69,62,58,62,58,55,93,85,73,30.01,29.93,12,3,12,0.00
2013-6-5,69,63,57,62,59,56,95,86,70,30.09,29.99,14,4,14,0.00
2013-6-6,74,66,58,63,60,57,95,83,62,30.09,29.99,9,3,9,0.01
2013-6-7,76,70,64,62,58,55,85,68,51,30.01,29.97,10,4,10,0.00
2013-6-8,76,69,62,66,62,57,93,80,64,30.01,29.95,16,5,16,0.00
2013-6-9,77,68,60,66,60,44,94,76,40,30.00,29.88,13,4,13,0.01
2013-6-10,73,67,62,64,58,44,89,73,40,29.94,29.86,12,4,12,0.00
2013-6-11,73,66,59,63,60,56,93,82,68,29.96,29.90,13,4,13,0.02
2013-6-12,77,68,62,64,60,51,95,75,48,30.02,29.95,13,5,13,0.00
2013-6-13,78,71,65,62,54,47,67,55,45,30.04,29.98,23,8,23,0.00
2013-6-14,80,73,67,64,57,49,79,59,46,30.07,30.00,12,4,12,0.00
2013-6-15,78,72,66,67,61,53,80,69,55,30.09,30.05,9,4,9,0.00
2013-6-16,78,72,65,68,62,54,85,71,49,30.10,30.04,10,3,10,0.00
2013-6-17,83,75,67,71,66,59,82,74,62,30.07,29.99,8,2,8,0.00
2013-6-18,89,81,73,74,69,63,82,69,53,30.03,29.99,8,3,8,0.00
2013-6-19,90,81,74,73,66,60,75,63,39,30.04,30.00,8,3,8,0.00
2013-6-20,89,81,72,72,64,57,81,58,40,30.04,30.00,9,3,9,0.00
2013-6-21,88,78,73,71,64,57,85,62,41,30.05,30.01,12,3,12,0.00
2013-6-22,82,74,68,71,67,59,94,78,56,30.06,30.00,10,3,10,0.00
2013-6-23,78,72,67,71,67,64,91,85,75,30.05,29.97,13,4,13,0.01
2013-6-24,74,69,64,64,61,58,90,77,61,29.99,29.94,17,7,17,0.00
2013-6-25,74,68,64,63,61,58,89,77,66,30.06,29.96,13,5,13,0.00
2013-6-26,76,69,63,65,62,56,92,79,64,30.06,30.01,15,4,15,0.00
2013-6-27,75,69,63,64,58,53,86,69,59,30.08,30.04,15,4,15,0.00
2013-6-28,74,68,62,63,61,58,90,77,65,30.08,29.99,18,6,18,0.00
2013-6-29,74,67,61,62,58,53,89,73,57,30.02,29.94,20,4,20,0.04
2013-6-30,76,69,61,62,56,49,83,65,47,30.09,30.00,13,4,13,0.00
2013-7-1,77,71,66,65,58,52,79,64,48,30.12,30.07,12,4,12,0.00
2013-7-2,80,73,66,67,60,54,76,64,43,30.10,30.04,13,3,13,0.00
2013-7-3,78,72,65,68,63,55,88,75,49,30.07,29.98,12,3,12,0.00
2013-7-4,74,68,64,66,63,58,93,82,66,30.04,29.98,12,3,12,0.06
2013-7-5,82,74,65,66,62,54,88,66,46,30.09,30.02,13,4,13,0.00
2013-7-6,87,78,72,67,60,52,68,55,46,30.09,30.03,13,5,13,0.00
2013-7-7,83,75,70,68,63,58,79,67,46,30.09,30.01,24,5,24,0.00
2013-7-8,82,74,69,68,63,56,80,69,53,30.09,30.06,12,3,12,0.00
2013-7-9,83,75,68,67,62,57,79,65,49,30.08,29.98,10,3,10,0.00
2013-7-10,81,74,67,70,66,60,90,75,59,30.00,29.90,14,4,14,0.00
2013-7-11,82,74,68,71,68,65,92,82,60,29.97,29.90,13,4,13,0.00
2013-7-12,81,76,70,72,69,64,92,81,68,30.05,29.96,12,4,12,0.00
2013-7-13,83,76,71,72,70,65,93,82,66,30.06,30.00,12,3,12,0.00
2013-7-14,83,76,70,73,68,60,93,78,55,30.04,30.00,12,4,12,0.00
2013-7-15,82,75,68,70,66,62,85,74,53,30.05,30.00,12,3,12,0.00
2013-7-16,87,78,71,70,60,51,77,55,38,30.10,30.04,13,4,13,0.00
2013-7-17,83,76,71,70,62,53,91,63,38,30.10,30.03,12,4,12,0.00
2013-7-18,84,77,71,67,60,53,77,57,41,30.09,30.05,15,5,15,0.00
2013-7-19,82,76,70,72,68,58,93,76,57,30.08,30.01,16,4,16,0.00
2013-7-20,81,75,70,70,66,62,88,75,59,30.02,29.96,12,4,12,0.00
2013-7-21,83,76,71,72,67,60,89,75,57,30.01,29.96,21,4,21,0.00
2013-7-22,86,77,70,71,65,60,85,67,45,30.00,29.94,10,3,10,0.00
2013-7-23,85,77,71,74,68,60,92,74,54,30.00,29.92,12,3,12,0.00
2013-7-24,84,77,70,74,71,66,93,81,58,30.06,29.99,13,4,13,0.00
2013-7-25,82,77,72,74,72,69,94,85,70,30.07,30.03,12,4,12,0.01
2013-7-26,83,78,72,75,72,69,95,84,71,30.06,29.98,12,4,12,0.01
2013-7-27,86,80,74,76,73,69,90,79,64,29.99,29.95,9,3,10,0.00
2013-7-28,90,81,75,77,72,65,89,75,58,30.08,29.98,11,3,11,0.00
2013-7-29,91,83,76,76,68,56,85,63,40,30.10,30.03,9,4,9,0.00
2013-7-30,84,79,74,75,73,68,94,82,63,30.05,29.94,12,4,12,0.00
2013-7-31,88,80,73,71,63,50,89,58,38,29.97,29.91,18,6,18,0.00
2013-8-1,88,80,74,70,61,51,65,51,38,30.00,29.94,20,8,20,0.00
2013-8-2,88,81,74,72,62,52,83,53,37,30.06,29.99,12,4,12,0.00
2013-8-3,88,82,74,73,66,56,79,60,48,30.08,30.03,9,3,9,0.00
2013-8-4,92,83,77,76,67,60,76,60,45,30.08,30.02,12,3,12,0.00
2013-8-5,87,82,75,78,71,62,83,71,51,30.04,29.97,9,3,9,0.00
2013-8-6,87,81,75,77,70,50,87,71,33,30.03,29.96,9,3,9,0.00
2013-8-7,88,82,77,78,73,60,87,75,57,29.99,29.94,14,4,14,0.00
2013-8-8,90,83,76,78,74,66,89,75,56,29.99,29.94,9,2,9,0.00
2013-8-9,88,79,66,77,70,62,89,74,45,29.96,29.79,24,6,24,0.70
2013-8-10,86,77,70,70,66,61,86,70,49,29.91,29.83,13,5,13,0.00
2013-8-11,87,79,72,70,65,60,85,63,48,29.97,29.89,17,4,17,0.00
2013-8-12,86,78,72,73,69,65,86,75,56,30.02,29.96,14,5,14,0.00
2013-8-13,84,77,71,72,69,63,87,77,62,30.02,29.96,14,4,14,0.00
2013-8-14,84,78,72,74,70,65,92,78,65,29.99,29.92,12,4,12,0.00
2013-8-15,88,80,72,72,67,62,82,67,48,30.03,29.94,9,3,9,0.00
2013-8-16,86,79,74,71,67,63,79,67,54,30.04,29.99,10,4,10,0.00
2013-8-17,86,79,72,73,69,64,83,72,55,30.05,30.00,10,3,10,0.00
2013-8-18,85,78,68,72,70,63,91,75,58,30.08,30.02,12,3,12,0.00
2013-8-19,85,77,70,73,70,61,90,78,64,30.06,29.98,12,3,12,0.00
2013-8-20,84,77,71,73,69,63,93,78,57,30.00,29.92,12,3,12,0.00
2013-8-21,86,77,69,69,64,57,81,65,51,30.00,29.92,30,5,30,0.01
2013-8-22,84,76,71,70,65,58,88,69,48,30.00,29.94,12,4,12,0.00
2013-8-23,83,76,71,72,69,63,89,77,61,30.02,29.97,11,3,12,0.00
2013-8-24,83,76,71,71,68,65,88,76,61,30.02,29.93,10,4,10,0.00
2013-8-25,76,72,65,70,66,60,92,83,63,29.95,29.85,21,7,21,0.53
2013-8-26,83,76,71,72,69,64,90,78,61,29.92,29.84,14,4,14,0.00
2013-8-27,84,75,69,72,68,65,92,81,63,29.91,29.81,16,5,16,0.17
2013-8-28,80,74,69,70,66,61,92,77,59,30.01,29.88,15,4,15,0.01
2013-8-29,80,72,67,66,64,60,84,75,60,30.08,30.01,8,2,8,0.00
2013-8-30,80,74,69,68,64,60,82,71,52,30.08,29.96,16,5,16,0.00
2013-8-31,83,75,68,64,60,53,80,62,38,30.06,30.00,12,3,12,0.00
2013-9-1,84,74,69,66,60,52,84,62,37,30.09,30.01,13,4,13,0.00
2013-9-2,83,75,68,67,63,55,86,67,43,30.17,30.06,10,3,10,0.00
2013-9-3,84,76,68,67,61,51,81,61,41,30.19,30.14,12,4,12,0.00
2013-9-4,86,77,70,68,58,49,79,52,34,30.19,30.10,18,4,18,0.00
2013-9-5,86,77,71,69,61,50,83,59,42,30.12,29.97,14,5,14,0.00
2013-9-6,86,76,70,70,63,56,84,66,40,29.99,29.91,12,3,12,0.00
2013-9-7,83,75,70,72,69,65,94,84,61,30.12,29.99,12,3,12,0.00
2013-9-8,83,75,70,72,69,64,93,82,55,30.18,30.12,9,3,9,0.00
2013-9-9,81,74,70,72,70,67,94,87,71,30.18,30.09,17,4,17,0.02
2013-9-10,78,73,69,69,67,64,90,83,71,30.13,29.98,21,4,21,0.01
2013-9-11,78,72,66,69,66,64,94,83,69,30.06,29.99,15,4,15,0.51
2013-9-12,75,70,68,68,63,56,91,78,62,30.03,29.97,18,5,18,0.02
2013-9-13,76,70,66,63,60,57,78,70,57,30.13,29.98,14,4,14,0.00
2013-9-14,76,70,66,65,62,60,84,75,64,30.14,30.07,11,4,12,0.00
2013-9-15,76,70,65,65,62,60,86,77,63,30.10,29.86,14,4,14,0.00
2013-9-16,78,70,66,65,62,60,86,75,60,29.85,29.78,17,6,17,0.02
2013-9-17,74,68,64,66,60,54,92,76,62,29.79,29.70,24,9,24,0.14
2013-9-18,75,68,63,63,59,56,87,74,59,29.81,29.75,13,5,13,0.00
2013-9-19,75,69,66,67,63,60,90,82,67,29.87,29.76,15,5,15,0.11
2013-9-20,78,70,65,65,61,54,88,72,54,30.04,29.87,9,3,9,0.00
2013-9-21,80,71,65,66,63,56,91,77,55,30.13,30.04,10,3,10,0.00
2013-9-22,76,70,63,59,52,43,74,53,41,30.17,30.11,20,7,20,0.01
2013-9-23,75,67,61,58,52,44,79,60,47,30.16,30.08,17,5,17,0.00
2013-9-24,75,69,63,63,60,55,87,74,56,30.10,30.06,10,4,10,0.00
2013-9-25,74,68,62,64,62,59,91,79,67,30.08,30.02,10,4,10,0.00
2013-9-26,75,68,63,66,63,60,91,83,72,30.06,29.99,9,4,9,0.00
2013-9-27,77,70,66,69,66,62,93,85,74,30.03,29.97,9,3,9,0.00
2013-9-28,76,70,65,68,66,63,95,88,70,30.00,29.94,8,3,8,0.01
2013-9-29,78,71,66,67,64,60,92,79,57,29.96,29.77,16,8,16,0.00
2013-9-30,74,70,65,69,66,62,95,88,75,29.79,29.62,20,8,20,0.54
2013-10-1,74,69,65,66,63,61,92,83,70,29.82,29.67,12,4,12,0.02
2013-10-2,75,68,64,64,59,50,90,73,54,30.05,29.81,15,4,15,0.00
2013-10-3,74,66,60,52,48,43,67,54,37,30.24,30.05,15,4,15,0.00
2013-10-4,73,65,59,57,51,42,70,59,48,30.28,30.22,14,3,14,0.00
2013-10-5,68,64,59,62,57,50,94,78,57,30.27,30.08,23,11,23,1.06
2013-10-6,70,66,61,65,63,59,95,90,83,30.10,29.98,27,13,27,1.50
2013-10-7,76,68,63,66,64,62,95,86,71,30.14,30.04,13,5,13,0.19
2013-10-8,73,66,60,67,63,58,94,88,76,30.16,30.10,13,5,13,1.28
2013-10-9,72,65,62,64,61,59,92,86,70,30.14,30.04,14,5,14,0.82
2013-10-10,71,65,61,64,61,59,95,87,75,30.07,29.88,15,5,15,2.46
2013-10-11,73,68,64,68,65,62,95,91,79,30.07,29.89,18,7,18,0.01
2013-10-12,70,68,63,66,63,60,93,85,71,30.18,30.03,25,8,25,0.66
2013-10-13,78,71,67,68,63,60,88,75,61,30.15,30.10,7,2,7,0.00
2013-10-14,79,71,65,67,61,54,87,71,54,30.15,30.08,6,2,6,0.00
2013-10-15,75,68,63,66,62,57,91,80,70,30.12,29.99,7,2,7,0.00
2013-10-16,70,66,62,66,62,55,93,88,75,29.99,29.72,21,6,21,0.20
2013-10-17,73,65,58,56,51,41,78,60,39,30.03,29.87,9,3,9,0.00
2013-10-18,74,65,60,60,55,49,82,70,49,30.12,30.02,10,3,10,0.00
2013-10-19,72,66,60,63,57,50,87,75,56,30.27,30.12,10,3,10,0.00
2013-10-20,72,68,65,64,62,58,87,81,70,30.30,30.25,16,8,16,0.00
2013-10-21,76,69,65,66,62,59,93,79,63,30.29,30.21,12,4,12,0.00
2013-10-22,76,67,62,67,63,60,94,86,72,30.24,30.16,4,2,4,0.01
2013-10-23,74,66,61,67,62,59,96,89,71,30.21,30.12,7,3,7,0.01
2013-10-24,74,66,62,66,62,59,95,87,74,30.20,30.15,7,3,7,0.01
2013-10-25,76,68,63,65,62,59,92,82,67,30.20,30.15,5,3,5,0.00
2013-10-26,74,67,62,67,63,60,94,88,75,30.25,30.19,6,2,6,0.02
2013-10-27,72,66,63,65,63,60,96,90,76,30.26,30.21,7,2,7,0.01
2013-10-28,74,66,62,66,63,61,96,89,74,30.23,30.12,6,2,6,0.01
2013-10-29,73,66,62,66,62,60,95,89,74,30.12,30.00,6,2,6,0.02
2013-10-30,73,65,61,65,61,59,96,88,67,30.07,29.98,8,3,8,0.01
2013-10-31,72,66,61,62,59,56,93,79,60,30.17,30.07,12,4,12,0.00
2013-11-1,70,66,62,62,58,56,89,77,65,30.18,30.13,12,5,12,0.03
2013-11-2,69,64,62,63,60,58,91,88,79,30.15,30.09,14,7,14,0.06
2013-11-3,70,65,62,63,61,60,92,87,76,30.11,30.01,13,6,13,0.05
2013-11-4,69,66,63,63,61,59,89,84,78,30.01,29.63,14,5,14,0.01
2013-11-5,67,62,59,62,58,54,93,87,79,29.63,29.43,22,6,22,0.59
2013-11-6,70,61,55,58,55,52,91,81,63,29.93,29.55,12,2,12,0.00
2013-11-7,72,64,58,62,58,55,92,83,61,30.14,29.93,9,3,9,0.00
2013-11-8,70,64,60,63,60,57,93,87,77,30.15,30.10,9,4,9,0.00
2013-11-9,67,64,62,64,61,57,92,89,80,30.12,30.00,14,7,14,0.00
2013-11-10,66,62,56,59,56,52,91,81,70,30.03,29.58,32,9,32,0.53
2013-11-11,58,54,50,53,50,46,92,85,71,29.68,29.40,28,9,28,1.88
2013-11-12,66,60,55,54,50,44,84,72,60,29.93,29.68,20,7,28,0.02
2013-11-13,66,61,58,56,53,49,80,74,66,29.94,29.86,18,6,18,0.00
2013-11-14,65,62,59,55,53,51,83,74,67,29.96,29.91,21,8,21,0.00
2013-11-15,65,62,59,56,54,49,85,74,59,29.97,29.86,20,9,20,0.00
2013-11-16,64,61,58,55,51,47,83,70,56,30.10,29.96,26,11,26,0.02
2013-11-17,67,61,57,58,54,51,90,79,66,30.17,30.09,14,5,14,0.02
2013-11-18,64,62,58,56,54,52,89,75,65,30.11,29.77,26,11,26,0.00
2013-11-19,64,60,56,59,53,46,92,78,65,29.79,29.63,29,10,29,0.28
2013-11-20,62,58,54,56,52,49,93,83,73,29.77,29.57,20,6,23,0.34
2013-11-21,57,52,49,51,47,42,94,82,62,29.75,29.61,21,6,21,0.61
2013-11-22,55,53,50,50,49,46,92,88,76,29.62,29.47,20,6,20,0.75
2013-11-23,56,52,48,49,45,41,89,76,62,29.64,29.46,24,9,24,0.12
2013-11-24,50,48,46,46,44,42,91,86,80,29.71,29.59,16,5,16,0.83
2013-11-25,56,48,39,45,41,31,89,75,61,29.83,29.70,28,9,28,0.13
2013-11-26,48,43,41,35,32,29,70,64,55,29.96,29.77,23,12,23,0.00
2013-11-27,48,43,40,40,33,28,94,68,54,30.22,29.95,20,6,20,0.13
2013-11-28,50,47,46,45,43,41,92,85,75,30.28,30.19,24,10,24,0.26
2013-11-29,56,51,46,48,44,42,87,77,68,30.22,30.07,17,4,20,0.00
2013-11-30,54,52,48,50,46,41,91,81,67,30.07,29.77,23,6,23,0.15
2013-12-1,63,57,52,54,48,45,84,72,64,29.77,29.58,38,19,38,0.04
2013-12-2,58,55,51,55,53,50,95,94,85,30.08,29.71,26,6,26,1.97
2013-12-3,56,54,49,52,44,41,93,71,62,30.20,30.06,29,11,29,0.01
2013-12-4,58,51,46,45,41,37,81,70,60,30.25,30.18,6,3,6,0.00
2013-12-5,58,52,49,50,47,45,89,84,74,30.20,30.14,7,2,7,0.00
2013-12-6,54,53,51,48,46,42,86,79,68,30.14,29.96,8,3,8,0.00
2013-12-7,59,53,49,46,43,41,77,69,57,30.33,29.99,12,4,12,0.00
2013-12-8,59,54,49,50,46,42,88,74,66,30.42,30.32,12,5,12,0.17
2013-12-9,58,55,51,53,50,48,91,84,74,30.44,30.38,14,4,14,0.22
2013-12-10,59,54,51,50,46,42,92,73,59,30.49,30.39,23,7,23,0.00
2013-12-11,61,54,51,47,44,40,80,69,57,30.52,30.46,20,4,20,0.00
2013-12-12,58,52,49,49,46,42,91,80,70,30.49,30.35,7,2,7,0.00
2013-12-13,57,52,49,51,48,45,92,85,72,30.35,30.25,12,2,12,0.01
2013-12-14,58,53,49,49,47,45,92,82,68,30.42,30.29,9,2,9,0.02
2013-12-15,55,51,48,49,46,40,88,82,70,30.46,30.38,14,6,14,0.19
2013-12-16,56,52,49,43,40,33,75,64,49,30.51,30.44,17,8,17,0.19
2013-12-17,60,54,50,44,41,37,71,62,50,30.48,30.38,13,5,13,0.00
2013-12-18,59,51,48,45,42,36,89,70,55,30.38,30.28,8,3,8,0.19
2013-12-19,56,52,48,48,45,43,85,79,69,30.29,30.20,15,5,15,0.00
2013-12-20,57,54,50,50,47,45,86,78,72,30.48,30.20,19,10,20,0.00
2013-12-21,61,53,50,48,45,42,86,74,55,30.56,30.47,9,3,9,0.00
2013-12-22,58,52,48,48,44,41,85,75,65,30.54,30.40,7,3,7,0.00
2013-12-23,58,50,47,49,44,41,85,80,69,30.40,30.25,7,3,7,0.00
2013-12-24,58,51,47,49,45,40,87,79,66,30.25,30.14,9,4,9,0.00
2013-12-25,57,54,51,53,49,47,92,85,81,30.14,29.79,22,10,22,0.00
2013-12-26,58,57,56,54,53,53,91,88,86,29.79,29.60,23,16,23,0.13
2013-12-27,55,50,47,48,45,43,91,84,75,29.92,29.54,28,3,14,0.14
2013-12-28,59,52,48,50,46,42,86,80,68,30.09,29.92,9,4,9,0.01
2013-12-29,59,54,52,52,49,47,88,84,74,30.14,30.07,12,5,12,0.00
2013-12-30,57,54,51,51,50,48,94,87,76,30.14,30.07,13,6,13,0.57
2013-12-31,61,52,49,51,47,45,94,84,65,30.08,30.01,13,2,13,0.04
2014-1-1,57,52,49,51,48,45,89,84,76,30.14,30.03,12,2,12,0.00
2014-1-2,56,52,49,51,48,44,92,85,69,30.15,30.09,12,4,12,0.09